Stella Polaris — PEBD — position and weather

sailwx.info

Track history (hours):
 
Tides and Currents Weather Stations Pressure Air Temp Water Temp Dewpoint Dewpoint Depression Visibility Wind Speed Wind Dir Waves Ship Positions

Stella Polaris

Last reported at 2017-Jan-19 10:24 UTC. Time now 2017-Jan-19 10:54 UTC.
Position N 51°46' E 003°19'.

Length 117 m; draft 5.2 m.

Type: Ship (hazmat cat A). MMSI: 245911000.

Date/timePositionNaut miles runAvg speedWind from/ knotsBaromVisibWave heightAir tempDewpointWater temp
2017-Jan-19 10:24N 51°46' E 003°19'0 0.0
2017-Jan-19 09:33N 51°46' E 003°19'0 0.0
2017-Jan-19 08:33N 51°46' E 003°20'0 0.0
2017-Jan-19 07:33N 51°46' E 003°20'0 0.0
2017-Jan-19 06:33N 51°46' E 003°20'3 3.0
2017-Jan-19 05:33N 51°45' E 003°15'1211.9
2017-Jan-19 04:33N 51°34' E 003°25'1110.8
2017-Jan-19 03:33N 51°26' E 003°37'10 9.8
2017-Jan-19 02:33N 51°20' E 003°49'4 3.7
2017-Jan-19 01:33N 51°16' E 003°50'5 4.2
2017-Jan-19 00:28N 51°12' E 003°48'0 0.0
2017-Jan-18 23:28N 51°12' E 003°48'0 0.0
2017-Jan-18 22:31N 51°12' E 003°48'0 0.0
2017-Jan-18 21:31N 51°12' E 003°48'0 0.0
2017-Jan-18 20:31N 51°12' E 003°48'0 0.0
2017-Jan-18 19:31N 51°12' E 003°48'0 0.0
2017-Jan-18 18:31N 51°12' E 003°48'0 0.0
2017-Jan-18 17:31N 51°12' E 003°48'0 0.0
2017-Jan-18 16:31N 51°12' E 003°48'0 0.0
2017-Jan-18 15:31N 51°12' E 003°48'0 0.0
2017-Jan-18 14:31N 51°12' E 003°48'0 0.0
2017-Jan-18 13:32N 51°12' E 003°48'0 0.0
2017-Jan-18 12:32N 51°12' E 003°48'0 0.0
2017-Jan-18 11:32N 51°12' E 003°48'0 0.0
2017-Jan-18 10:32N 51°12' E 003°48'0 0.0
2017-Jan-18 09:32N 51°12' E 003°48'0 0.0
2017-Jan-18 08:32N 51°12' E 003°48'0 0.0
2017-Jan-18 07:32N 51°12' E 003°48'0 0.0
2017-Jan-18 06:32N 51°12' E 003°48'0 0.0
2017-Jan-18 05:26N 51°12' E 003°48'0 0.0
2017-Jan-18 04:32N 51°12' E 003°48'0 0.0
2017-Jan-18 03:32N 51°12' E 003°48'0 0.0
2017-Jan-18 02:32N 51°12' E 003°48'0 0.0
2017-Jan-18 01:33N 51°12' E 003°48'0 0.0
2017-Jan-18 00:33N 51°12' E 003°48'0 0.0
2017-Jan-17 23:33N 51°12' E 003°48'0 0.0
2017-Jan-17 22:33N 51°12' E 003°48'0 0.0
2017-Jan-17 21:30N 51°12' E 003°48'0 0.0
2017-Jan-17 20:33N 51°12' E 003°48'0 0.0
2017-Jan-17 19:33N 51°12' E 003°48'0 0.0
2017-Jan-17 18:33N 51°12' E 003°48'0 0.0
2017-Jan-17 17:33N 51°12' E 003°48'0 0.0
2017-Jan-17 16:33N 51°12' E 003°48'0 0.0
2017-Jan-17 15:33N 51°12' E 003°48'0 0.0
2017-Jan-17 14:33N 51°12' E 003°48'0 0.2
2017-Jan-17 13:34N 51°12' E 003°48'5 5.0
2017-Jan-17 12:33N 51°17' E 003°50'3 2.7
2017-Jan-17 11:33N 51°20' E 003°49'4 4.1
2017-Jan-17 10:33N 51°22' E 003°44'7 7.4
2017-Jan-17 09:33N 51°25' E 003°33'6 6.3
2017-Jan-17 08:33N 51°30' E 003°27'1312.5
2017-Jan-17 07:33N 51°41' E 003°17'6 6.4
2017-Jan-17 06:33N 51°47' E 003°22'1 0.9
2017-Jan-17 05:32N 51°48' E 003°22'0 0.0
2017-Jan-17 04:17N 51°48' E 003°22'0 0.0
2017-Jan-17 03:32N 51°48' E 003°22'0 0.1
2017-Jan-17 02:32N 51°48' E 003°22'0 0.0
2017-Jan-17 01:32N 51°48' E 003°22'0 0.0
2017-Jan-17 00:31N 51°48' E 003°22'0 0.0
2017-Jan-16 23:31N 51°48' E 003°22'0 0.0
2017-Jan-16 19:10N 51°48' E 003°22'0 0.0
2017-Jan-16 15:22N 51°48' E 003°22'0 0.1
2017-Jan-16 14:31N 51°48' E 003°22'0 0.0
2017-Jan-16 02:30N 51°48' E 003°22'0 0.1
2017-Jan-16 01:33N 51°48' E 003°22'43710.7
2017-Jan-14 08:33N 57°49' E 010°30'1111.3
2017-Jan-14 07:33N 57°48' E 010°51'1313.3
2017-Jan-14 06:33N 57°42' E 011°13'1413.8
2017-Jan-14 05:33N 57°36' E 011°36'3 3.1
2017-Jan-14 04:33N 57°36' E 011°42'0 0.0
2017-Jan-14 03:30N 57°36' E 011°42'8611.8
2017-Jan-13 20:16N 56°14' E 012°27'1014.5
2017-Jan-13 19:33N 56°05' E 012°36'1413.9
2017-Jan-13 18:34N 55°52' E 012°43'1414.2
2017-Jan-13 17:33N 55°40' E 012°57'3 2.3
2017-Jan-13 16:16N 55°38' E 013°01'0 0.0
2017-Jan-13 15:28N 55°38' E 013°01'0 0.0
2017-Jan-13 14:25N 55°38' E 013°01'0 0.0
2017-Jan-13 13:31N 55°38' E 013°01'0 0.0
2017-Jan-13 12:28N 55°38' E 013°01'0 0.0
2017-Jan-13 11:31N 55°38' E 013°01'0 0.0
2017-Jan-13 10:31N 55°38' E 013°01'0 0.0
2017-Jan-13 09:31N 55°38' E 013°01'0 0.0
2017-Jan-13 08:31N 55°38' E 013°01'0 0.0
2017-Jan-13 07:31N 55°38' E 013°01'0 0.0
2017-Jan-13 06:32N 55°38' E 013°01'1 0.7
2017-Jan-13 05:34N 55°39' E 013°00'3 3.2
2017-Jan-13 04:32N 55°41' E 012°57'0 0.0
2017-Jan-13 03:32N 55°41' E 012°57'0 0.0
2017-Jan-13 02:32N 55°41' E 012°57'0 0.0
2017-Jan-13 01:32N 55°41' E 012°57'0 0.0
2017-Jan-13 00:32N 55°41' E 012°57'0 0.0
2017-Jan-12 23:32N 55°41' E 012°57'0 0.0
2017-Jan-12 22:32N 55°41' E 012°57'0 0.0
2017-Jan-12 21:29N 55°41' E 012°57'0 0.0
2017-Jan-12 20:29N 55°41' E 012°57'1 1.0
2017-Jan-12 19:33N 55°40' E 012°56'10 9.8
2017-Jan-12 18:33N 55°32' E 012°46'1211.8
2017-Jan-12 17:34N 55°21' E 012°40'1111.3
2017-Jan-12 16:33N 55°16' E 012°58'1312.7
2017-Jan-12 15:33N 55°15' E 013°20'1412.4
2017-Jan-12 14:23N 55°14' E 013°46'1012.4
2017-Jan-12 13:33N 55°13' E 014°04'1111.2
2017-Jan-12 12:34N 55°16' E 014°23'1211.6
2017-Jan-12 11:33N 55°26' E 014°34'371 9.0
2017-Jan-10 18:11N 59°35' E 023°06'812.1
2017-Jan-10 17:32N 59°38' E 023°21'1212.3
2017-Jan-10 16:33N 59°41' E 023°44'8512.2
2017-Jan-10 09:33N 60°12' E 026°23'1211.9
2017-Jan-10 08:33N 60°21' E 026°39'10 9.6
2017-Jan-10 07:33N 60°26' E 026°55'0 0.0
2017-Jan-10 06:32N 60°26' E 026°55'0 0.0
2017-Jan-10 05:32N 60°26' E 026°55'0 0.0
2017-Jan-10 04:32N 60°26' E 026°55'0 0.0
2017-Jan-10 03:32N 60°26' E 026°55'0 0.0
2017-Jan-10 02:32N 60°26' E 026°55'0 0.0
2017-Jan-10 01:32N 60°26' E 026°55'0 0.0
2017-Jan-10 00:32N 60°26' E 026°55'0 0.0
2017-Jan-09 23:32N 60°26' E 026°55'0 0.0
2017-Jan-09 22:32N 60°26' E 026°55'0 0.0
2017-Jan-09 21:29N 60°26' E 026°55'0 0.0
2017-Jan-09 20:32N 60°26' E 026°55'0 0.0
2017-Jan-09 19:32N 60°26' E 026°55'0 0.0
2017-Jan-09 18:32N 60°26' E 026°55'0 0.0
2017-Jan-09 17:33N 60°26' E 026°55'0 0.0
2017-Jan-09 16:33N 60°26' E 026°55'0 0.0
2017-Jan-09 15:33N 60°26' E 026°55'0 0.0
2017-Jan-09 14:33N 60°26' E 026°55'0 0.0
2017-Jan-09 13:33N 60°26' E 026°55'0 0.0
2017-Jan-09 12:33N 60°26' E 026°55'0 0.0
2017-Jan-09 11:33N 60°26' E 026°55'0 0.0
2017-Jan-09 10:33N 60°26' E 026°55'  
Track history (hours):
 
Tides and Currents Weather Stations Pressure Air Temp Water Temp Dewpoint Dewpoint Depression Visibility Wind Speed Wind Dir Waves Ship Positions

Stella Polaris

Last reported at 2017-Jan-19 10:24 UTC. Time now 2017-Jan-19 10:54 UTC.
Position N 51°46' E 003°19'.

Length 117 m; draft 5.2 m.

Type: Ship (hazmat cat A). MMSI: 245911000.

Date/timePositionNaut miles runAvg speedWind from/ knotsBaromVisibWave heightAir tempDewpointWater temp
2017-Jan-19 10:24N 51°46' E 003°19'0 0.0
2017-Jan-19 09:33N 51°46' E 003°19'0 0.0
2017-Jan-19 08:33N 51°46' E 003°20'0 0.0
2017-Jan-19 07:33N 51°46' E 003°20'0 0.0
2017-Jan-19 06:33N 51°46' E 003°20'3 3.0
2017-Jan-19 05:33N 51°45' E 003°15'1211.9
2017-Jan-19 04:33N 51°34' E 003°25'1110.8
2017-Jan-19 03:33N 51°26' E 003°37'10 9.8
2017-Jan-19 02:33N 51°20' E 003°49'4 3.7
2017-Jan-19 01:33N 51°16' E 003°50'5 4.2
2017-Jan-19 00:28N 51°12' E 003°48'0 0.0
2017-Jan-18 23:28N 51°12' E 003°48'0 0.0
2017-Jan-18 22:31N 51°12' E 003°48'0 0.0
2017-Jan-18 21:31N 51°12' E 003°48'0 0.0
2017-Jan-18 20:31N 51°12' E 003°48'0 0.0
2017-Jan-18 19:31N 51°12' E 003°48'0 0.0
2017-Jan-18 18:31N 51°12' E 003°48'0 0.0
2017-Jan-18 17:31N 51°12' E 003°48'0 0.0
2017-Jan-18 16:31N 51°12' E 003°48'0 0.0
2017-Jan-18 15:31N 51°12' E 003°48'0 0.0
2017-Jan-18 14:31N 51°12' E 003°48'0 0.0
2017-Jan-18 13:32N 51°12' E 003°48'0 0.0
2017-Jan-18 12:32N 51°12' E 003°48'0 0.0
2017-Jan-18 11:32N 51°12' E 003°48'0 0.0
2017-Jan-18 10:32N 51°12' E 003°48'0 0.0
2017-Jan-18 09:32N 51°12' E 003°48'0 0.0
2017-Jan-18 08:32N 51°12' E 003°48'0 0.0
2017-Jan-18 07:32N 51°12' E 003°48'0 0.0
2017-Jan-18 06:32N 51°12' E 003°48'0 0.0
2017-Jan-18 05:26N 51°12' E 003°48'0 0.0
2017-Jan-18 04:32N 51°12' E 003°48'0 0.0
2017-Jan-18 03:32N 51°12' E 003°48'0 0.0
2017-Jan-18 02:32N 51°12' E 003°48'0 0.0
2017-Jan-18 01:33N 51°12' E 003°48'0 0.0
2017-Jan-18 00:33N 51°12' E 003°48'0 0.0
2017-Jan-17 23:33N 51°12' E 003°48'0 0.0
2017-Jan-17 22:33N 51°12' E 003°48'0 0.0
2017-Jan-17 21:30N 51°12' E 003°48'0 0.0
2017-Jan-17 20:33N 51°12' E 003°48'0 0.0
2017-Jan-17 19:33N 51°12' E 003°48'0 0.0
2017-Jan-17 18:33N 51°12' E 003°48'0 0.0
2017-Jan-17 17:33N 51°12' E 003°48'0 0.0
2017-Jan-17 16:33N 51°12' E 003°48'0 0.0
2017-Jan-17 15:33N 51°12' E 003°48'0 0.0
2017-Jan-17 14:33N 51°12' E 003°48'0 0.2
2017-Jan-17 13:34N 51°12' E 003°48'5 5.0
2017-Jan-17 12:33N 51°17' E 003°50'3 2.7
2017-Jan-17 11:33N 51°20' E 003°49'4 4.1
2017-Jan-17 10:33N 51°22' E 003°44'7 7.4
2017-Jan-17 09:33N 51°25' E 003°33'6 6.3
2017-Jan-17 08:33N 51°30' E 003°27'1312.5
2017-Jan-17 07:33N 51°41' E 003°17'6 6.4
2017-Jan-17 06:33N 51°47' E 003°22'1 0.9
2017-Jan-17 05:32N 51°48' E 003°22'0 0.0
2017-Jan-17 04:17N 51°48' E 003°22'0 0.0
2017-Jan-17 03:32N 51°48' E 003°22'0 0.1
2017-Jan-17 02:32N 51°48' E 003°22'0 0.0
2017-Jan-17 01:32N 51°48' E 003°22'0 0.0
2017-Jan-17 00:31N 51°48' E 003°22'0 0.0
2017-Jan-16 23:31N 51°48' E 003°22'0 0.0
2017-Jan-16 19:10N 51°48' E 003°22'0 0.0
2017-Jan-16 15:22N 51°48' E 003°22'0 0.1
2017-Jan-16 14:31N 51°48' E 003°22'0 0.0
2017-Jan-16 02:30N 51°48' E 003°22'0 0.1
2017-Jan-16 01:33N 51°48' E 003°22'43710.7
2017-Jan-14 08:33N 57°49' E 010°30'1111.3
2017-Jan-14 07:33N 57°48' E 010°51'1313.3
2017-Jan-14 06:33N 57°42' E 011°13'1413.8
2017-Jan-14 05:33N 57°36' E 011°36'3 3.1
2017-Jan-14 04:33N 57°36' E 011°42'0 0.0
2017-Jan-14 03:30N 57°36' E 011°42'8611.8
2017-Jan-13 20:16N 56°14' E 012°27'1014.5
2017-Jan-13 19:33N 56°05' E 012°36'1413.9
2017-Jan-13 18:34N 55°52' E 012°43'1414.2
2017-Jan-13 17:33N 55°40' E 012°57'3 2.3
2017-Jan-13 16:16N 55°38' E 013°01'0 0.0
2017-Jan-13 15:28N 55°38' E 013°01'0 0.0
2017-Jan-13 14:25N 55°38' E 013°01'0 0.0
2017-Jan-13 13:31N 55°38' E 013°01'0 0.0
2017-Jan-13 12:28N 55°38' E 013°01'0 0.0
2017-Jan-13 11:31N 55°38' E 013°01'0 0.0
2017-Jan-13 10:31N 55°38' E 013°01'0 0.0
2017-Jan-13 09:31N 55°38' E 013°01'0 0.0
2017-Jan-13 08:31N 55°38' E 013°01'0 0.0
2017-Jan-13 07:31N 55°38' E 013°01'0 0.0
2017-Jan-13 06:32N 55°38' E 013°01'1 0.7
2017-Jan-13 05:34N 55°39' E 013°00'3 3.2
2017-Jan-13 04:32N 55°41' E 012°57'0 0.0
2017-Jan-13 03:32N 55°41' E 012°57'0 0.0
2017-Jan-13 02:32N 55°41' E 012°57'0 0.0
2017-Jan-13 01:32N 55°41' E 012°57'0 0.0
2017-Jan-13 00:32N 55°41' E 012°57'0 0.0
2017-Jan-12 23:32N 55°41' E 012°57'0 0.0
2017-Jan-12 22:32N 55°41' E 012°57'0 0.0
2017-Jan-12 21:29N 55°41' E 012°57'0 0.0
2017-Jan-12 20:29N 55°41' E 012°57'1 1.0
2017-Jan-12 19:33N 55°40' E 012°56'10 9.8
2017-Jan-12 18:33N 55°32' E 012°46'1211.8
2017-Jan-12 17:34N 55°21' E 012°40'1111.3
2017-Jan-12 16:33N 55°16' E 012°58'1312.7
2017-Jan-12 15:33N 55°15' E 013°20'1412.4
2017-Jan-12 14:23N 55°14' E 013°46'1012.4
2017-Jan-12 13:33N 55°13' E 014°04'1111.2
2017-Jan-12 12:34N 55°16' E 014°23'1211.6
2017-Jan-12 11:33N 55°26' E 014°34'371 9.0
2017-Jan-10 18:11N 59°35' E 023°06'812.1
2017-Jan-10 17:32N 59°38' E 023°21'1212.3
2017-Jan-10 16:33N 59°41' E 023°44'8512.2
2017-Jan-10 09:33N 60°12' E 026°23'1211.9
2017-Jan-10 08:33N 60°21' E 026°39'10 9.6
2017-Jan-10 07:33N 60°26' E 026°55'0 0.0
2017-Jan-10 06:32N 60°26' E 026°55'0 0.0
2017-Jan-10 05:32N 60°26' E 026°55'0 0.0
2017-Jan-10 04:32N 60°26' E 026°55'0 0.0
2017-Jan-10 03:32N 60°26' E 026°55'0 0.0
2017-Jan-10 02:32N 60°26' E 026°55'0 0.0
2017-Jan-10 01:32N 60°26' E 026°55'0 0.0
2017-Jan-10 00:32N 60°26' E 026°55'0 0.0
2017-Jan-09 23:32N 60°26' E 026°55'0 0.0
2017-Jan-09 22:32N 60°26' E 026°55'0 0.0
2017-Jan-09 21:29N 60°26' E 026°55'0 0.0
2017-Jan-09 20:32N 60°26' E 026°55'0 0.0
2017-Jan-09 19:32N 60°26' E 026°55'0 0.0
2017-Jan-09 18:32N 60°26' E 026°55'0 0.0
2017-Jan-09 17:33N 60°26' E 026°55'0 0.0
2017-Jan-09 16:33N 60°26' E 026°55'0 0.0
2017-Jan-09 15:33N 60°26' E 026°55'0 0.0
2017-Jan-09 14:33N 60°26' E 026°55'0 0.0
2017-Jan-09 13:33N 60°26' E 026°55'0 0.0
2017-Jan-09 12:33N 60°26' E 026°55'0 0.0
2017-Jan-09 11:33N 60°26' E 026°55'0 0.0
2017-Jan-09 10:33N 60°26' E 026°55'  

Dump ship's entire track history